Time;durP1;ratioP1;P1;durP2;ratioP2;P2;SDS_P1;SDS_P2;PMS_P1;PMS_P2;Temp;Humidity;BMP_temperature;BMP_pressure;BME280_temperature;BME280_humidity;BME280_pressure;Samples;Min_cycle;Max_cycle;Signal;HPM_P1;HPM_P2
2023/10/20 00:02:18;;;;;;;141.87;57.80;;;6.30;99.90;;;;;;5181716;28;20868;-49
2023/10/20 00:04:49;;;;;;;127.63;56.53;;;6.30;99.90;;;;;;5184426;28;20505;-50
2023/10/20 00:07:21;;;;;;;166.80;62.47;;;6.40;99.90;;;;;;5186311;28;20472;-49
2023/10/20 00:09:53;;;;;;;156.73;60.30;;;6.30;99.90;;;;;;5184020;28;20179;-49
2023/10/20 00:12:23;;;;;;;168.77;64.07;;;6.30;99.90;;;;;;5185364;28;20452;-50
2023/10/20 00:14:54;;;;;;;127.43;55.43;;;6.30;99.90;;;;;;5183043;28;20445;-50
2023/10/20 00:17:25;;;;;;;151.13;58.73;;;6.30;99.90;;;;;;5182039;28;20439;-48
2023/10/20 00:19:56;;;;;;;134.43;54.40;;;6.30;99.90;;;;;;5177135;28;20195;-50
2023/10/20 00:22:26;;;;;;;173.60;59.93;;;6.30;99.90;;;;;;5184936;28;20200;-50
2023/10/20 00:24:57;;;;;;;121.17;54.17;;;6.30;99.90;;;;;;5185697;28;20238;-50
2023/10/20 00:27:28;;;;;;;138.37;56.93;;;6.30;99.90;;;;;;5182954;28;20204;-50
2023/10/20 00:29:58;;;;;;;156.90;59.07;;;6.30;99.90;;;;;;5185559;28;20181;-49
2023/10/20 00:32:30;;;;;;;118.83;53.57;;;6.30;99.90;;;;;;5182290;28;20503;-50
2023/10/20 00:35:03;;;;;;;181.43;62.17;;;6.30;99.90;;;;;;5182002;28;20257;-49
2023/10/20 00:37:35;;;;;;;126.50;54.17;;;6.30;99.90;;;;;;5197277;28;20871;-50
2023/10/20 00:40:09;;;;;;;130.80;54.03;;;6.30;99.90;;;;;;5182298;28;20445;-49
2023/10/20 00:42:40;;;;;;;135.97;55.03;;;6.30;99.90;;;;;;5167397;28;20477;-49
2023/10/20 00:45:11;;;;;;;136.20;54.77;;;6.30;99.90;;;;;;5179806;28;20873;-48
2023/10/20 00:47:46;;;;;;;109.80;51.00;;;6.30;99.90;;;;;;5182683;28;20251;-49
2023/10/20 00:50:17;;;;;;;134.87;53.37;;;6.30;99.90;;;;;;5184703;28;20450;-49
2023/10/20 00:52:49;;;;;;;133.33;52.97;;;6.30;99.90;;;;;;5183916;28;21026;-48
2023/10/20 00:55:21;;;;;;;120.43;52.50;;;6.30;99.90;;;;;;5164848;28;20435;-49
2023/10/20 00:57:54;;;;;;;129.90;53.90;;;6.30;99.90;;;;;;5183592;28;20494;-49
2023/10/20 01:00:24;;;;;;;128.37;52.40;;;6.30;99.90;;;;;;5181576;28;20817;-50
2023/10/20 01:02:55;;;;;;;113.90;50.77;;;6.30;99.90;;;;;;5181467;28;20537;-49
2023/10/20 01:05:26;;;;;;;102.90;46.33;;;6.40;99.90;;;;;;5181892;28;20193;-48
2023/10/20 01:07:57;;;;;;;124.33;53.37;;;6.40;99.90;;;;;;5182083;28;20219;-49
2023/10/20 01:10:28;;;;;;;109.73;47.87;;;6.30;99.90;;;;;;5180316;28;20997;-49
2023/10/20 01:12:59;;;;;;;159.83;56.40;;;6.40;99.90;;;;;;5181132;28;20643;-49
2023/10/20 01:15:29;;;;;;;105.63;48.20;;;6.30;99.90;;;;;;5180509;28;20442;-48
2023/10/20 01:18:00;;;;;;;112.57;48.80;;;6.40;99.90;;;;;;5185539;28;20212;-49
2023/10/20 01:20:31;;;;;;;93.83;46.70;;;6.40;99.90;;;;;;5186263;28;20251;-49
2023/10/20 01:23:02;;;;;;;104.33;48.07;;;6.40;99.90;;;;;;5187674;28;20191;-48
2023/10/20 01:25:32;;;;;;;113.23;49.20;;;6.40;99.90;;;;;;5179424;28;20712;-49
2023/10/20 01:28:03;;;;;;;98.20;46.60;;;6.40;99.90;;;;;;5182452;28;20274;-49
2023/10/20 01:30:34;;;;;;;108.83;47.03;;;6.40;99.90;;;;;;5180505;28;20526;-50
2023/10/20 01:33:05;;;;;;;96.30;47.67;;;6.40;99.90;;;;;;5182495;28;21062;-49
2023/10/20 01:35:36;;;;;;;96.53;41.77;;;6.40;99.90;;;;;;5182263;28;20214;-50
2023/10/20 01:38:06;;;;;;;89.87;41.20;;;6.40;99.90;;;;;;5181176;28;20248;-50
2023/10/20 01:40:37;;;;;;;91.03;43.03;;;6.40;99.90;;;;;;5184409;28;20566;-50
2023/10/20 01:43:08;;;;;;;88.03;40.97;;;6.40;99.90;;;;;;5180160;28;20555;-51
2023/10/20 01:45:38;;;;;;;88.97;41.23;;;6.40;99.90;;;;;;5178472;28;20187;-49
2023/10/20 01:48:09;;;;;;;116.63;42.30;;;6.40;99.90;;;;;;5180955;28;20221;-49
2023/10/20 01:50:40;;;;;;;100.00;41.40;;;6.50;99.90;;;;;;5183991;28;20270;-50
2023/10/20 01:53:11;;;;;;;76.20;37.20;;;6.50;99.90;;;;;;5180599;28;20243;-49
2023/10/20 01:55:50;;;;;;;121.00;42.30;;;6.50;99.90;;;;;;5182794;28;20278;-50
2023/10/20 01:58:21;;;;;;;72.10;35.17;;;6.50;99.90;;;;;;5179491;28;20884;-50
2023/10/20 02:00:52;;;;;;;83.90;37.17;;;6.50;99.90;;;;;;5183327;28;20471;-49
2023/10/20 02:03:26;;;;;;;86.13;35.83;;;6.50;99.90;;;;;;5183671;28;20881;-49
2023/10/20 02:05:56;;;;;;;79.60;34.57;;;6.40;99.90;;;;;;5185003;28;20577;-49
2023/10/20 02:08:31;;;;;;;63.00;32.47;;;6.50;99.90;;;;;;5184696;28;20483;-49
2023/10/20 02:11:02;;;;;;;70.97;33.40;;;6.50;99.90;;;;;;5185747;28;20185;-49
2023/10/20 02:13:35;;;;;;;66.50;32.60;;;6.50;99.90;;;;;;5177613;28;20443;-48
2023/10/20 02:16:10;;;;;;;63.20;30.40;;;6.50;99.90;;;;;;5179831;28;20245;-48
2023/10/20 02:18:41;;;;;;;55.23;26.97;;;6.50;99.90;;;;;;5183064;28;20849;-49
2023/10/20 02:21:12;;;;;;;84.93;34.73;;;6.50;99.90;;;;;;5183841;28;20469;-49
2023/10/20 02:23:44;;;;;;;69.33;30.40;;;6.50;99.90;;;;;;5183171;28;20658;-49
2023/10/20 02:26:17;;;;;;;70.60;29.07;;;6.50;99.90;;;;;;5180372;28;20458;-50
2023/10/20 02:28:47;;;;;;;56.03;28.50;;;6.40;99.90;;;;;;5181572;28;20623;-55
2023/10/20 02:31:18;;;;;;;63.40;28.70;;;6.40;99.90;;;;;;5181379;28;20544;-49
2023/10/20 02:33:49;;;;;;;47.00;23.63;;;6.40;99.90;;;;;;5177261;28;20215;-49
2023/10/20 02:36:21;;;;;;;70.13;27.27;;;6.40;99.90;;;;;;5183108;28;20187;-49
2023/10/20 02:38:52;;;;;;;57.47;25.30;;;6.40;99.90;;;;;;5177554;28;21028;-50
2023/10/20 02:41:23;;;;;;;41.17;23.30;;;6.40;99.90;;;;;;5178405;28;20448;-50
2023/10/20 02:43:53;;;;;;;44.67;23.07;;;6.40;99.90;;;;;;5183686;28;20568;-48
2023/10/20 02:46:24;;;;;;;49.37;22.63;;;6.40;99.90;;;;;;5181831;28;20180;-48
2023/10/20 02:48:55;;;;;;;53.83;23.33;;;6.30;99.90;;;;;;5178937;28;20214;-49
2023/10/20 02:51:25;;;;;;;51.77;22.50;;;6.30;99.90;;;;;;5180993;28;20271;-48
2023/10/20 02:53:56;;;;;;;41.83;22.57;;;6.30;99.90;;;;;;5179710;28;20667;-49
2023/10/20 02:56:28;;;;;;;44.77;21.37;;;6.30;99.90;;;;;;5178209;28;20266;-49
2023/10/20 02:58:58;;;;;;;57.30;23.90;;;6.30;99.90;;;;;;5182805;28;20199;-50
2023/10/20 03:01:30;;;;;;;48.50;22.43;;;6.30;99.90;;;;;;5180355;28;20430;-50
2023/10/20 03:04:01;;;;;;;36.77;20.10;;;6.30;99.90;;;;;;5175771;28;20186;-48
2023/10/20 03:06:32;;;;;;;35.43;19.17;;;6.20;99.90;;;;;;5181136;28;20529;-48
2023/10/20 03:09:03;;;;;;;46.67;20.27;;;6.20;99.90;;;;;;5183152;28;20227;-49
2023/10/20 03:11:34;;;;;;;43.00;20.80;;;6.20;99.90;;;;;;5177849;28;20184;-49
2023/10/20 03:14:05;;;;;;;44.07;20.70;;;6.20;99.90;;;;;;5183981;28;20517;-49
2023/10/20 03:16:42;;;;;;;50.93;22.27;;;6.20;99.90;;;;;;5176663;28;20531;-49
2023/10/20 03:19:13;;;;;;;38.73;20.40;;;6.20;99.90;;;;;;5192105;28;20207;-48
2023/10/20 03:21:43;;;;;;;49.30;21.77;;;6.20;99.90;;;;;;5180407;28;20465;-48
2023/10/20 03:24:14;;;;;;;55.93;23.67;;;6.10;99.90;;;;;;5186212;28;20585;-48
2023/10/20 03:26:45;;;;;;;40.17;20.70;;;6.10;99.90;;;;;;5182614;28;20193;-50
2023/10/20 03:29:16;;;;;;;49.57;20.27;;;6.20;99.90;;;;;;5182657;28;20470;-48
2023/10/20 03:31:47;;;;;;;37.47;17.20;;;6.10;99.90;;;;;;5185898;28;20264;-49
2023/10/20 03:34:18;;;;;;;50.13;21.23;;;6.10;99.90;;;;;;5183873;28;20187;-49
2023/10/20 03:36:49;;;;;;;40.97;20.30;;;6.10;99.90;;;;;;5185194;28;20444;-48
2023/10/20 03:39:23;;;;;;;49.77;20.20;;;6.20;99.90;;;;;;5182947;28;20210;-48
2023/10/20 03:41:54;;;;;;;45.50;21.00;;;6.00;99.90;;;;;;5184685;28;20178;-49
2023/10/20 03:44:24;;;;;;;40.47;19.93;;;6.10;99.90;;;;;;5186323;28;20492;-48
2023/10/20 03:46:59;;;;;;;43.23;20.87;;;6.00;99.90;;;;;;5184922;28;20210;-47
2023/10/20 03:49:33;;;;;;;39.33;20.60;;;6.00;99.90;;;;;;5183815;28;20213;-49
2023/10/20 03:52:06;;;;;;;40.73;21.67;;;6.00;99.90;;;;;;5166332;28;20438;-48
2023/10/20 03:54:38;;;;;;;43.67;21.10;;;6.00;99.90;;;;;;5185531;28;20450;-48
2023/10/20 03:57:12;;;;;;;39.00;21.50;;;6.00;99.90;;;;;;5183875;28;20446;-49
2023/10/20 03:59:46;;;;;;;44.60;20.60;;;6.00;99.90;;;;;;5182907;28;20470;-48
2023/10/20 04:02:17;;;;;;;46.27;22.30;;;5.90;99.90;;;;;;5185843;28;20536;-48
2023/10/20 04:04:48;;;;;;;46.23;22.03;;;5.90;99.90;;;;;;5185585;28;20518;-48
2023/10/20 04:07:18;;;;;;;45.00;21.23;;;5.90;99.90;;;;;;5179148;28;20223;-49
2023/10/20 04:09:49;;;;;;;50.80;22.73;;;5.90;99.90;;;;;;5185649;28;20654;-49
2023/10/20 04:12:20;;;;;;;44.73;21.60;;;6.00;99.90;;;;;;5183916;28;20257;-48
2023/10/20 04:14:54;;;;;;;39.77;20.70;;;5.90;99.90;;;;;;5183131;28;20174;-48
2023/10/20 04:17:25;;;;;;;44.73;21.23;;;5.90;99.90;;;;;;5181590;28;20524;-48
2023/10/20 04:19:57;;;;;;;41.87;21.70;;;5.90;99.90;;;;;;5184986;28;20512;-48
2023/10/20 04:22:29;;;;;;;45.40;22.27;;;5.80;99.90;;;;;;5182623;28;20187;-48
2023/10/20 04:25:01;;;;;;;39.23;21.03;;;5.80;99.90;;;;;;5180936;28;20450;-48
2023/10/20 04:28:14;;;;;;;47.37;22.10;;;5.80;99.90;;;;;;5181790;28;20482;-49
2023/10/20 04:41:56;;;;;;;48.10;22.57;;;5.80;99.90;;;;;;5180522;28;20454;-48
2023/10/20 04:57:52;;;;;;;43.40;22.90;;;5.80;99.90;;;;;;5181346;28;20584;-49
2023/10/20 05:05:39;;;;;;;46.47;21.37;;;5.80;99.90;;;;;;5184034;28;20483;-48
2023/10/20 05:10:43;;;;;;;46.27;22.60;;;5.80;99.90;;;;;;5184039;28;20473;-49
2023/10/20 05:13:13;;;;;;;47.37;22.93;;;5.80;99.90;;;;;;5183368;28;20843;-48
2023/10/20 05:15:45;;;;;;;47.10;24.27;;;5.70;99.90;;;;;;5180127;28;20442;-48
2023/10/20 05:18:16;;;;;;;44.13;23.53;;;5.70;99.90;;;;;;5182950;28;20623;-47
2023/10/20 05:20:47;;;;;;;54.40;25.40;;;5.70;99.90;;;;;;5179622;28;20453;-50
2023/10/20 05:23:18;;;;;;;49.90;25.13;;;5.70;99.90;;;;;;5183188;28;20254;-47
2023/10/20 05:25:49;;;;;;;49.53;24.70;;;5.70;99.90;;;;;;5180934;28;20196;-49
2023/10/20 05:28:19;;;;;;;60.63;26.57;;;5.70;99.90;;;;;;5165999;28;20219;-49
2023/10/20 05:30:50;;;;;;;51.27;26.60;;;5.60;99.90;;;;;;5179187;28;20520;-48
2023/10/20 05:33:21;;;;;;;77.50;29.07;;;5.70;99.90;;;;;;5182878;28;20588;-48
2023/10/20 05:35:53;;;;;;;66.43;29.60;;;5.70;99.90;;;;;;5173522;28;20206;-48
2023/10/20 05:38:23;;;;;;;58.93;26.77;;;5.70;99.90;;;;;;5177913;28;20243;-50
2023/10/20 05:40:59;;;;;;;76.97;31.40;;;5.60;99.90;;;;;;5179451;28;20476;-50
2023/10/20 05:43:30;;;;;;;58.73;28.13;;;5.60;99.90;;;;;;5173758;28;20652;-50
2023/10/20 05:46:02;;;;;;;65.33;27.83;;;5.70;99.90;;;;;;5179977;28;20452;-50
2023/10/20 05:48:33;;;;;;;59.13;27.77;;;5.60;99.90;;;;;;5179965;28;20518;-50
2023/10/20 05:51:03;;;;;;;60.10;26.20;;;5.60;99.90;;;;;;5193905;28;20477;-51
2023/10/20 05:53:35;;;;;;;66.03;29.13;;;5.60;99.90;;;;;;5184084;28;20282;-50
2023/10/20 05:56:06;;;;;;;66.57;28.77;;;5.60;99.90;;;;;;5182284;28;20440;-49
2023/10/20 05:58:37;;;;;;;68.73;29.77;;;5.60;99.90;;;;;;5182348;28;20469;-50
2023/10/20 06:01:12;;;;;;;68.27;30.50;;;5.60;99.90;;;;;;5179868;28;20440;-50
2023/10/20 06:03:43;;;;;;;58.73;28.10;;;5.60;99.90;;;;;;5176624;28;20989;-49
2023/10/20 06:06:13;;;;;;;60.97;27.60;;;5.60;99.90;;;;;;5166637;28;20479;-48
2023/10/20 06:08:44;;;;;;;65.43;29.40;;;5.60;99.90;;;;;;5193438;28;20809;-50
2023/10/20 06:11:15;;;;;;;63.40;28.90;;;5.50;99.90;;;;;;5180866;28;20246;-49
2023/10/20 06:13:46;;;;;;;71.87;30.37;;;5.50;99.90;;;;;;5181593;28;20560;-48
2023/10/20 06:16:17;;;;;;;66.00;30.90;;;5.50;99.90;;;;;;5182073;28;20441;-49
2023/10/20 06:18:47;;;;;;;57.80;28.97;;;5.50;99.90;;;;;;5184022;28;20205;-48
2023/10/20 06:21:18;;;;;;;64.47;30.60;;;5.50;99.90;;;;;;5181212;28;20211;-47
2023/10/20 06:23:52;;;;;;;64.23;30.70;;;5.50;99.90;;;;;;5186814;28;20637;-49
2023/10/20 06:26:22;;;;;;;64.97;30.30;;;5.50;99.90;;;;;;5171286;28;20201;-48
2023/10/20 06:28:53;;;;;;;63.57;27.93;;;5.50;99.90;;;;;;5174244;28;20485;-50
2023/10/20 06:34:19;;;;;;;67.90;28.27;;;5.40;99.90;;;;;;5176917;28;20259;-48
2023/10/20 06:37:07;;;;;;;67.77;30.63;;;5.40;99.90;;;;;;5178395;28;20520;-49
2023/10/20 06:39:38;;;;;;;72.37;31.57;;;5.40;99.90;;;;;;5194853;28;20530;-50
2023/10/20 06:42:09;;;;;;;66.77;31.87;;;5.40;99.90;;;;;;5180740;28;20498;-49
2023/10/20 06:44:40;;;;;;;58.93;30.60;;;5.40;99.90;;;;;;5181710;28;20428;-49
2023/10/20 06:47:11;;;;;;;69.83;30.40;;;5.40;99.90;;;;;;5168101;28;20203;-47
2023/10/20 06:49:42;;;;;;;71.00;29.20;;;5.40;99.90;;;;;;5194907;28;20820;-48
2023/10/20 06:52:17;;;;;;;66.93;30.90;;;5.40;99.90;;;;;;5177124;28;20569;-49
2023/10/20 06:54:49;;;;;;;75.33;31.37;;;5.40;99.90;;;;;;5181738;28;20445;-48
2023/10/20 06:57:20;;;;;;;65.33;30.53;;;5.50;99.90;;;;;;5182564;28;20457;-49
2023/10/20 06:59:51;;;;;;;74.13;29.50;;;5.40;99.90;;;;;;5183942;28;20437;-48
2023/10/20 07:02:21;;;;;;;61.63;30.27;;;5.40;99.90;;;;;;5201633;28;20240;-48
2023/10/20 07:04:52;;;;;;;67.30;28.40;;;5.40;99.90;;;;;;5183892;28;20550;-49
2023/10/20 07:07:23;;;;;;;66.30;28.67;;;5.40;99.90;;;;;;5184820;28;20214;-49
2023/10/20 07:09:54;;;;;;;64.83;30.20;;;5.40;99.90;;;;;;5186471;28;20277;-48
2023/10/20 07:12:25;;;;;;;51.60;26.27;;;5.40;99.90;;;;;;5186283;28;20544;-46
2023/10/20 07:14:55;;;;;;;69.83;31.10;;;5.30;99.90;;;;;;5184337;28;20180;-49
2023/10/20 07:17:27;;;;;;;64.20;29.17;;;5.30;99.90;;;;;;5184924;28;20316;-47
2023/10/20 07:19:58;;;;;;;60.80;28.20;;;5.30;99.90;;;;;;5185169;28;20190;-45
2023/10/20 07:22:29;;;;;;;60.10;28.43;;;5.30;99.90;;;;;;5182307;28;20437;-47
2023/10/20 07:24:59;;;;;;;58.03;27.90;;;5.30;99.90;;;;;;5184688;28;20193;-47
2023/10/20 07:27:31;;;;;;;60.30;27.70;;;5.30;99.90;;;;;;5185622;28;20220;-47
2023/10/20 07:30:03;;;;;;;56.20;26.47;;;5.20;99.90;;;;;;5179081;28;20182;-47
2023/10/20 07:32:37;;;;;;;58.33;29.07;;;5.30;99.90;;;;;;5183475;28;20467;-48
2023/10/20 07:35:08;;;;;;;59.43;26.20;;;5.30;99.90;;;;;;5172393;28;20445;-47
2023/10/20 07:37:39;;;;;;;53.67;26.07;;;5.30;99.90;;;;;;5178520;28;20611;-48
2023/10/20 07:40:10;;;;;;;55.80;25.43;;;5.30;99.90;;;;;;5181586;28;20785;-49
2023/10/20 07:42:45;;;;;;;41.37;22.30;;;5.30;99.90;;;;;;5182219;28;20444;-47
2023/10/20 07:45:18;;;;;;;46.53;23.40;;;5.30;99.90;;;;;;5180073;28;20452;-49
2023/10/20 07:47:48;;;;;;;43.67;21.57;;;5.30;99.90;;;;;;5182061;28;20471;-47
2023/10/20 07:50:19;;;;;;;33.70;19.40;;;5.30;99.90;;;;;;5182607;28;20812;-48
2023/10/20 07:52:50;;;;;;;31.00;19.33;;;5.40;99.90;;;;;;5182217;28;20194;-48
2023/10/20 07:55:21;;;;;;;26.63;16.30;;;5.40;99.90;;;;;;5180881;28;20201;-46
2023/10/20 07:57:51;;;;;;;28.80;16.23;;;5.40;99.90;;;;;;5180976;28;20218;-48
2023/10/20 08:00:24;;;;;;;31.30;16.20;;;5.40;99.90;;;;;;5178805;28;20201;-48
2023/10/20 08:02:55;;;;;;;24.83;14.90;;;5.40;99.90;;;;;;5184785;28;20189;-48
2023/10/20 08:05:27;;;;;;;21.67;13.57;;;5.40;99.90;;;;;;5181480;28;20496;-48
2023/10/20 08:07:58;;;;;;;25.13;13.60;;;5.40;99.90;;;;;;5181986;28;20473;-47
2023/10/20 08:10:29;;;;;;;19.50;12.77;;;5.40;99.90;;;;;;5183026;28;20443;-47
2023/10/20 08:12:59;;;;;;;20.83;12.23;;;5.40;99.90;;;;;;5180512;28;20187;-48
2023/10/20 08:15:36;;;;;;;15.17;10.67;;;5.40;99.90;;;;;;5181089;28;20620;-47
2023/10/20 08:18:07;;;;;;;16.63;10.57;;;5.40;99.90;;;;;;5180295;28;20322;-48
2023/10/20 08:20:38;;;;;;;13.20;9.90;;;5.40;99.90;;;;;;5185951;28;20434;-46
2023/10/20 08:23:09;;;;;;;14.10;9.83;;;5.40;99.90;;;;;;5180240;28;20457;-47
2023/10/20 08:25:40;;;;;;;13.57;10.53;;;5.40;99.90;;;;;;5180671;28;20453;-47
2023/10/20 08:28:11;;;;;;;13.70;9.33;;;5.50;99.90;;;;;;5181428;28;20221;-46
2023/10/20 08:30:42;;;;;;;11.47;8.40;;;5.50;99.90;;;;;;5177324;28;20454;-47
2023/10/20 08:33:13;;;;;;;13.70;8.70;;;5.50;99.90;;;;;;5182543;28;20248;-47
2023/10/20 08:35:44;;;;;;;9.43;8.43;;;5.50;99.90;;;;;;5181363;28;20187;-47
2023/10/20 08:38:14;;;;;;;10.67;7.80;;;5.50;99.90;;;;;;5165847;28;20679;-48
2023/10/20 08:40:45;;;;;;;12.30;7.73;;;5.50;99.90;;;;;;5176266;28;20453;-47
2023/10/20 08:43:16;;;;;;;9.40;8.40;;;5.50;99.90;;;;;;5183898;28;20344;-47
2023/10/20 08:45:50;;;;;;;12.43;8.07;;;5.50;99.90;;;;;;5181540;28;20236;-49
2023/10/20 08:48:20;;;;;;;12.83;8.23;;;5.50;99.90;;;;;;5179906;28;20218;-47
2023/10/20 08:50:54;;;;;;;9.37;8.07;;;5.40;99.90;;;;;;5178056;28;20444;-47
2023/10/20 08:53:28;;;;;;;11.33;8.40;;;5.40;99.90;;;;;;5179594;28;20190;-47
2023/10/20 08:56:01;;;;;;;10.70;8.80;;;5.40;99.90;;;;;;5182070;28;20441;-46
2023/10/20 08:58:32;;;;;;;13.47;9.00;;;5.40;99.90;;;;;;5176637;28;21000;-47
2023/10/20 09:01:04;;;;;;;14.53;9.20;;;5.40;99.90;;;;;;5179704;28;21085;-47
2023/10/20 09:03:40;;;;;;;13.27;9.20;;;5.40;99.90;;;;;;5180629;28;20533;-47
2023/10/20 09:06:16;;;;;;;12.67;9.27;;;5.50;99.90;;;;;;5179474;28;20447;-48
2023/10/20 09:08:49;;;;;;;15.93;10.57;;;5.40;99.90;;;;;;5176945;28;20478;-48
2023/10/20 09:11:33;;;;;;;12.20;9.50;;;5.40;99.90;;;;;;5179398;28;20479;-46
2023/10/20 09:14:06;;;;;;;12.80;9.80;;;5.40;99.90;;;;;;5179609;28;20861;-47
2023/10/20 09:16:39;;;;;;;15.10;11.30;;;5.40;99.90;;;;;;5179730;28;20442;-48
2023/10/20 09:19:14;;;;;;;15.23;10.17;;;5.40;99.90;;;;;;5178452;28;20465;-49
2023/10/20 09:21:46;;;;;;;22.40;12.27;;;5.30;99.90;;;;;;5178139;28;20445;-48
2023/10/20 09:24:17;;;;;;;18.83;12.17;;;5.30;99.90;;;;;;5181034;28;22241;-47
2023/10/20 09:26:48;;;;;;;22.70;13.57;;;5.20;99.90;;;;;;5173524;28;20914;-48
2023/10/20 09:29:22;;;;;;;18.90;12.93;;;5.20;99.90;;;;;;5182827;28;20469;-49
2023/10/20 09:32:00;;;;;;;30.17;13.53;;;5.20;99.90;;;;;;5180236;28;20555;-48
2023/10/20 09:34:30;;;;;;;22.17;13.10;;;5.30;99.90;;;;;;5179670;28;20441;-48
2023/10/20 09:37:01;;;;;;;20.60;12.73;;;5.20;99.90;;;;;;5179705;28;20440;-46
2023/10/20 09:39:42;;;;;;;26.83;13.10;;;5.10;99.90;;;;;;5175303;28;20368;-46
2023/10/20 09:42:18;;;;;;;21.87;12.30;;;5.10;99.90;;;;;;5179418;28;20448;-49
2023/10/20 09:45:08;;;;;;;23.80;14.07;;;5.10;99.90;;;;;;5191105;28;20436;-46
2023/10/20 09:47:43;;;;;;;27.50;15.30;;;5.10;99.90;;;;;;5180335;28;20517;-46
2023/10/20 09:50:18;;;;;;;22.83;13.90;;;5.10;99.90;;;;;;5181770;28;20455;-47
2023/10/20 09:52:49;;;;;;;27.00;15.83;;;5.00;99.90;;;;;;5175156;28;20518;-46
2023/10/20 09:55:20;;;;;;;22.67;14.80;;;5.10;99.90;;;;;;5176822;28;20507;-47
2023/10/20 09:57:51;;;;;;;28.50;15.43;;;5.10;99.90;;;;;;5182225;28;20466;-44
2023/10/20 10:00:30;;;;;;;31.07;15.27;;;5.10;99.90;;;;;;5180887;28;20540;-47
2023/10/20 10:03:02;;;;;;;39.37;16.70;;;5.10;99.90;;;;;;5184798;28;20418;-49
2023/10/20 10:05:35;;;;;;;25.07;14.57;;;5.00;99.90;;;;;;5180917;28;21269;-45
2023/10/20 10:08:08;;;;;;;29.90;16.73;;;5.00;99.90;;;;;;5180162;28;20480;-47
2023/10/20 10:10:41;;;;;;;28.70;14.83;;;5.10;99.90;;;;;;5177832;28;20439;-46
2023/10/20 10:13:12;;;;;;;31.10;16.73;;;5.10;99.90;;;;;;5182097;28;20790;-46
2023/10/20 10:15:46;;;;;;;32.13;15.97;;;5.10;99.90;;;;;;5180370;28;21095;-47
2023/10/20 10:18:18;;;;;;;25.03;14.27;;;5.00;99.90;;;;;;5175297;28;20217;-45
2023/10/20 10:20:50;;;;;;;25.47;14.87;;;5.10;99.90;;;;;;5177885;28;20940;-47
2023/10/20 10:23:27;;;;;;;25.97;15.00;;;5.00;99.90;;;;;;5180430;28;20463;-48
2023/10/20 10:25:58;;;;;;;35.37;15.93;;;5.00;99.90;;;;;;5178617;28;21046;-47
2023/10/20 10:28:30;;;;;;;33.03;16.77;;;5.00;99.90;;;;;;5179484;28;20534;-48
2023/10/20 10:31:01;;;;;;;25.27;15.70;;;5.00;99.90;;;;;;5180252;28;20186;-46
2023/10/20 10:33:32;;;;;;;26.03;15.87;;;5.10;99.90;;;;;;5178814;28;20795;-47
2023/10/20 10:36:05;;;;;;;28.33;16.20;;;5.00;99.90;;;;;;5173865;28;20310;-46
2023/10/20 10:38:45;;;;;;;29.53;14.70;;;5.10;99.90;;;;;;5161270;28;20219;-46
2023/10/20 10:41:23;;;;;;;26.07;15.47;;;5.00;99.90;;;;;;5185597;28;20498;-48
2023/10/20 10:43:54;;;;;;;24.80;14.00;;;5.00;99.90;;;;;;5176049;28;20455;-48
2023/10/20 10:46:34;;;;;;;29.73;15.13;;;4.90;99.90;;;;;;5180662;28;20495;-46
2023/10/20 10:49:10;;;;;;;33.73;15.10;;;4.90;99.90;;;;;;5179815;28;21860;-46
2023/10/20 10:51:45;;;;;;;24.57;14.90;;;5.00;99.90;;;;;;5182137;28;20443;-48
2023/10/20 10:54:17;;;;;;;21.53;14.30;;;4.90;99.90;;;;;;5167340;28;20523;-49
2023/10/20 10:56:48;;;;;;;27.10;15.67;;;5.00;99.90;;;;;;5181937;28;20453;-48
2023/10/20 10:59:19;;;;;;;28.20;14.50;;;5.00;99.90;;;;;;5177127;28;20457;-47
2023/10/20 11:01:50;;;;;;;28.30;15.43;;;5.00;99.90;;;;;;5181363;28;20498;-48
2023/10/20 11:04:22;;;;;;;19.27;13.77;;;5.00;99.90;;;;;;5181150;28;20960;-51
2023/10/20 11:06:52;;;;;;;26.13;15.00;;;5.00;99.90;;;;;;5180322;28;20191;-48
2023/10/20 11:09:27;;;;;;;22.17;14.17;;;5.00;99.90;;;;;;5177438;28;20517;-50
2023/10/20 11:11:58;;;;;;;22.60;14.00;;;5.00;99.90;;;;;;5181815;28;20189;-48
2023/10/20 11:14:28;;;;;;;23.17;13.73;;;5.00;99.90;;;;;;5185341;28;20602;-48
2023/10/20 11:17:03;;;;;;;24.43;13.70;;;5.00;99.90;;;;;;5181372;28;20226;-48
2023/10/20 11:19:34;;;;;;;27.17;15.40;;;5.00;99.90;;;;;;5179037;28;20226;-50
2023/10/20 11:22:15;;;;;;;28.70;16.00;;;5.00;99.90;;;;;;5182284;28;20838;-48
2023/10/20 11:24:53;;;;;;;20.13;13.47;;;5.00;99.90;;;;;;5182682;28;20512;-48
2023/10/20 11:27:23;;;;;;;28.87;15.57;;;5.00;99.90;;;;;;5182616;28;20831;-49
2023/10/20 11:29:58;;;;;;;22.37;15.10;;;5.00;99.90;;;;;;5180681;28;20456;-54
2023/10/20 11:32:29;;;;;;;23.70;15.93;;;5.00;99.90;;;;;;5180419;28;20307;-49
2023/10/20 11:35:00;;;;;;;23.20;13.60;;;5.00;99.90;;;;;;5180700;28;20486;-50
2023/10/20 11:37:31;;;;;;;23.80;13.20;;;5.10;99.90;;;;;;5166286;28;20649;-47
2023/10/20 11:40:02;;;;;;;20.63;12.60;;;5.10;99.90;;;;;;5181278;28;20267;-49
2023/10/20 11:42:33;;;;;;;20.77;14.17;;;5.00;99.90;;;;;;5178686;28;20444;-54
2023/10/20 11:45:05;;;;;;;22.80;14.17;;;5.10;99.90;;;;;;5182269;28;20443;-48
2023/10/20 11:47:37;;;;;;;24.60;13.57;;;5.10;99.90;;;;;;5182261;28;20649;-48
2023/10/20 11:50:10;;;;;;;17.77;12.10;;;5.10;99.90;;;;;;5185063;28;20557;-50
2023/10/20 11:52:42;;;;;;;24.83;14.70;;;5.10;99.90;;;;;;5180540;28;20526;-50
2023/10/20 11:55:13;;;;;;;24.60;14.60;;;5.10;99.90;;;;;;5178182;28;20807;-50
2023/10/20 11:57:43;;;;;;;22.73;13.43;;;5.20;99.90;;;;;;5180329;28;20453;-48
2023/10/20 12:00:14;;;;;;;23.40;13.80;;;5.10;99.90;;;;;;5181559;28;20244;-48
2023/10/20 12:02:45;;;;;;;20.37;12.93;;;5.10;99.90;;;;;;5178904;28;20189;-48
2023/10/20 12:05:16;;;;;;;21.13;13.23;;;5.20;99.90;;;;;;5180584;28;20449;-49
2023/10/20 12:07:47;;;;;;;18.30;13.00;;;5.20;99.90;;;;;;5182426;28;20227;-48
2023/10/20 12:10:17;;;;;;;19.50;11.70;;;5.20;99.90;;;;;;5184672;28;20641;-50
2023/10/20 12:12:48;;;;;;;18.50;13.43;;;5.10;99.90;;;;;;5177822;28;20187;-49
2023/10/20 12:15:19;;;;;;;19.90;12.17;;;5.10;99.90;;;;;;5180734;28;20178;-48
2023/10/20 12:17:50;;;;;;;16.93;11.57;;;5.20;99.90;;;;;;5181183;28;21104;-47
2023/10/20 12:20:20;;;;;;;19.80;11.80;;;5.20;99.90;;;;;;5160790;28;20190;-48
2023/10/20 12:22:55;;;;;;;20.43;12.17;;;5.20;99.90;;;;;;5185235;28;20468;-48
2023/10/20 12:25:26;;;;;;;19.07;12.10;;;5.20;99.90;;;;;;5186649;28;20210;-47
2023/10/20 12:27:56;;;;;;;14.60;10.77;;;5.20;99.90;;;;;;5189022;28;20861;-48
2023/10/20 12:30:27;;;;;;;13.70;9.90;;;5.20;99.90;;;;;;5187621;28;20194;-49
2023/10/20 12:32:59;;;;;;;14.93;10.47;;;5.20;99.90;;;;;;5186013;28;20191;-48
2023/10/20 12:35:30;;;;;;;17.20;11.17;;;5.20;99.90;;;;;;5181003;28;20187;-48
2023/10/20 12:38:02;;;;;;;16.60;10.67;;;5.20;99.90;;;;;;5179872;28;20461;-48
2023/10/20 12:40:34;;;;;;;17.50;10.50;;;5.20;99.90;;;;;;5183892;28;20187;-50
2023/10/20 12:43:09;;;;;;;10.40;9.00;;;5.20;99.90;;;;;;5181273;28;20453;-50
2023/10/20 12:45:39;;;;;;;15.03;9.30;;;5.20;99.90;;;;;;5179168;28;20476;-48
2023/10/20 12:48:10;;;;;;;10.33;7.83;;;5.20;99.90;;;;;;5181442;28;20481;-47
2023/10/20 12:50:41;;;;;;;7.80;7.03;;;5.20;99.90;;;;;;5179922;28;20188;-50
2023/10/20 12:53:13;;;;;;;8.00;7.10;;;5.10;99.90;;;;;;5182359;28;20573;-51
2023/10/20 12:55:43;;;;;;;7.80;6.40;;;5.10;99.90;;;;;;5180069;28;20177;-47
2023/10/20 12:58:14;;;;;;;8.60;6.27;;;5.10;99.90;;;;;;5182492;28;21014;-48
2023/10/20 13:00:45;;;;;;;7.07;6.43;;;5.10;99.90;;;;;;5174427;28;20255;-47
2023/10/20 13:03:15;;;;;;;7.30;6.30;;;5.10;99.90;;;;;;5181362;28;20285;-49
2023/10/20 13:05:46;;;;;;;8.40;6.97;;;5.10;99.90;;;;;;5183372;28;20440;-49
2023/10/20 13:08:17;;;;;;;7.37;6.23;;;5.10;99.90;;;;;;5180880;28;20356;-49
2023/10/20 13:10:48;;;;;;;7.70;6.60;;;5.10;99.90;;;;;;5178930;28;20214;-48
2023/10/20 13:13:19;;;;;;;7.90;6.47;;;5.10;99.90;;;;;;5183744;28;20218;-48
2023/10/20 13:15:50;;;;;;;9.07;6.70;;;5.20;99.90;;;;;;5183649;28;20857;-50
2023/10/20 13:18:21;;;;;;;6.43;5.80;;;5.20;99.90;;;;;;5180730;28;20302;-48
2023/10/20 13:20:51;;;;;;;7.23;6.53;;;5.20;99.90;;;;;;5196416;28;20678;-47
2023/10/20 13:23:22;;;;;;;8.47;6.50;;;5.20;99.90;;;;;;5181549;28;20510;-48
2023/10/20 13:25:58;;;;;;;6.07;5.00;;;5.20;99.90;;;;;;5183389;28;20181;-47
2023/10/20 13:28:30;;;;;;;6.07;5.33;;;5.20;99.90;;;;;;5182468;28;20209;-48
2023/10/20 13:31:03;;;;;;;6.03;5.40;;;5.10;99.90;;;;;;5180961;28;20976;-48
2023/10/20 13:33:34;;;;;;;7.20;6.00;;;5.10;99.90;;;;;;5178831;28;20439;-49
2023/10/20 13:36:10;;;;;;;5.50;5.10;;;5.10;99.90;;;;;;5180144;28;20437;-49
2023/10/20 13:38:41;;;;;;;6.17;5.60;;;5.10;99.90;;;;;;5196416;28;20463;-49